Time;durP1;ratioP1;P1;durP2;ratioP2;P2;SDS_P1;SDS_P2;PMS_P1;PMS_P2;Temp;Humidity;BMP_temperature;BMP_pressure;BME280_temperature;BME280_humidity;BME280_pressure;Samples;Min_cycle;Max_cycle;Signal;HPM_P1;HPM_P2
2021/01/16 00:00:20;;;;;;;103.35;62.00;;;17.30;50.70;;;;;;5115416;28;20081;-60
2021/01/16 00:02:46;;;;;;;106.90;64.47;;;17.20;51.00;;;;;;5114218;28;20475;-60
2021/01/16 00:05:15;;;;;;;107.43;62.55;;;17.20;51.30;;;;;;5115276;28;20110;-61
2021/01/16 00:07:43;;;;;;;103.95;62.95;;;17.20;51.50;;;;;;5112740;28;20027;-60
2021/01/16 00:10:09;;;;;;;112.15;63.28;;;17.20;51.90;;;;;;5115415;28;20058;-63
2021/01/16 00:12:35;;;;;;;109.10;62.47;;;17.10;51.90;;;;;;5115269;28;20123;-60
2021/01/16 00:15:00;;;;;;;106.10;61.25;;;17.10;52.20;;;;;;5115257;28;20546;-61
2021/01/16 00:17:26;;;;;;;107.72;61.25;;;17.10;52.30;;;;;;5115060;28;20031;-61
2021/01/16 00:19:51;;;;;;;96.47;58.20;;;17.20;52.40;;;;;;5115105;28;20106;-60
2021/01/16 00:22:17;;;;;;;106.30;61.67;;;17.10;52.30;;;;;;5115270;28;20458;-61
2021/01/16 00:24:43;;;;;;;103.53;59.85;;;17.20;52.40;;;;;;5114924;28;20144;-60
2021/01/16 00:27:08;;;;;;;99.80;60.53;;;17.20;52.30;;;;;;5115031;28;20023;-60
2021/01/16 00:29:34;;;;;;;94.13;54.97;;;17.20;52.40;;;;;;5114981;28;20028;-60
2021/01/16 00:31:59;;;;;;;99.60;57.22;;;17.20;52.40;;;;;;5114931;28;20030;-60
2021/01/16 00:34:25;;;;;;;97.25;56.85;;;17.10;52.30;;;;;;5114826;28;20024;-60
2021/01/16 00:36:50;;;;;;;98.80;60.35;;;17.10;52.50;;;;;;5113657;28;20055;-61
2021/01/16 00:39:16;;;;;;;92.28;55.85;;;17.00;52.70;;;;;;5114725;28;20058;-61
2021/01/16 00:41:42;;;;;;;91.32;55.28;;;17.00;52.90;;;;;;5114795;28;20024;-60
2021/01/16 00:44:07;;;;;;;94.05;54.35;;;16.90;53.20;;;;;;5114653;28;20107;-60
2021/01/16 00:46:33;;;;;;;92.45;55.10;;;16.90;53.60;;;;;;5114703;28;20035;-60
2021/01/16 00:48:59;;;;;;;93.30;55.58;;;16.90;53.50;;;;;;5114374;28;20516;-60
2021/01/16 00:51:25;;;;;;;91.18;52.50;;;16.90;53.20;;;;;;5114615;28;20103;-60
2021/01/16 00:53:50;;;;;;;92.55;51.30;;;16.90;53.20;;;;;;5113506;28;20465;-60
2021/01/16 00:56:16;;;;;;;84.75;50.70;;;16.90;53.30;;;;;;5114394;28;20544;-60
2021/01/16 00:58:41;;;;;;;87.03;49.03;;;17.00;53.40;;;;;;5111766;28;20027;-60
2021/01/16 01:01:07;;;;;;;82.88;49.60;;;17.00;53.20;;;;;;5114336;28;20103;-60
2021/01/16 01:03:32;;;;;;;80.90;47.92;;;17.10;53.00;;;;;;5114237;28;20061;-60
2021/01/16 01:05:58;;;;;;;86.72;49.75;;;17.20;52.90;;;;;;5114420;28;20493;-61
2021/01/16 01:08:28;;;;;;;79.20;47.60;;;17.30;52.70;;;;;;5114341;28;20023;-60
2021/01/16 01:10:55;;;;;;;83.72;47.60;;;17.40;52.60;;;;;;5114146;28;20520;-60
2021/01/16 01:13:20;;;;;;;76.05;45.10;;;17.50;52.40;;;;;;5114168;28;20020;-60
2021/01/16 01:15:46;;;;;;;77.07;45.40;;;17.60;52.30;;;;;;5113943;28;20030;-60
2021/01/16 01:18:11;;;;;;;76.53;44.45;;;17.60;52.40;;;;;;5114230;28;20024;-60
2021/01/16 01:20:37;;;;;;;73.57;44.53;;;17.60;52.20;;;;;;5113966;28;20384;-59
2021/01/16 01:23:03;;;;;;;74.03;43.75;;;17.80;52.10;;;;;;5115077;28;20027;-59
2021/01/16 01:25:29;;;;;;;73.88;42.78;;;17.90;52.40;;;;;;5115322;28;20036;-59
2021/01/16 01:27:57;;;;;;;69.97;41.72;;;18.00;51.60;;;;;;5115203;28;20135;-59
2021/01/16 01:30:25;;;;;;;68.90;41.40;;;19.50;51.50;;;;;;5115164;28;20026;-59
2021/01/16 01:32:51;;;;;;;71.93;42.20;;;18.00;51.50;;;;;;5115058;28;20108;-59
2021/01/16 01:35:18;;;;;;;68.57;41.08;;;18.00;52.30;;;;;;5115080;28;20069;-59
2021/01/16 01:37:45;;;;;;;64.80;40.40;;;17.90;51.90;;;;;;5114915;28;20446;-59
2021/01/16 01:40:14;;;;;;;69.60;40.95;;;17.70;52.20;;;;;;5114592;28;20377;-59
2021/01/16 01:42:40;;;;;;;67.55;39.15;;;17.70;52.50;;;;;;5113592;28;20385;-59
2021/01/16 01:45:11;;;;;;;64.60;39.03;;;17.60;52.60;;;;;;5114737;28;20031;-60
2021/01/16 01:47:38;;;;;;;60.60;36.63;;;17.50;52.70;;;;;;5114672;28;20459;-59
2021/01/16 01:50:07;;;;;;;58.33;35.97;;;17.10;52.10;;;;;;5114464;28;20043;-60
2021/01/16 01:52:33;;;;;;;61.05;36.60;;;17.50;52.90;;;;;;5114333;28;20110;-59
2021/01/16 01:55:00;;;;;;;60.42;36.67;;;17.50;52.90;;;;;;5114531;28;20019;-59
2021/01/16 01:57:26;;;;;;;61.92;38.28;;;17.50;53.00;;;;;;5114185;28;20388;-59
2021/01/16 01:59:54;;;;;;;62.65;37.03;;;17.40;53.00;;;;;;5114700;28;20024;-59
2021/01/16 02:02:21;;;;;;;57.45;37.15;;;17.40;53.10;;;;;;5114496;28;20019;-59
2021/01/16 02:04:49;;;;;;;54.65;34.03;;;17.40;53.00;;;;;;5114186;28;20028;-59
2021/01/16 02:07:26;;;;;;;53.65;32.20;;;17.40;53.00;;;;;;5113972;28;20027;-60
2021/01/16 02:09:53;;;;;;;54.33;32.60;;;17.30;52.90;;;;;;5114111;28;20465;-60
2021/01/16 02:12:19;;;;;;;54.58;34.30;;;17.40;52.90;;;;;;5113924;28;20047;-60
2021/01/16 02:14:55;;;;;;;54.75;33.35;;;17.40;52.70;;;;;;5114475;28;20037;-59
2021/01/16 02:17:25;;;;;;;49.63;32.28;;;17.40;52.60;;;;;;5114425;28;20122;-59
2021/01/16 02:19:56;;;;;;;57.17;32.95;;;17.40;52.70;;;;;;5114428;28;20031;-59
2021/01/16 02:22:25;;;;;;;53.78;32.90;;;17.40;52.70;;;;;;5113961;28;20015;-59
2021/01/16 02:25:13;;;;;;;53.00;31.08;;;17.40;52.80;;;;;;5114245;28;20027;-59
2021/01/16 02:27:48;;;;;;;52.65;30.55;;;17.40;53.00;;;;;;5114957;28;20032;-59
2021/01/16 02:30:15;;;;;;;50.90;29.95;;;17.40;52.90;;;;;;5113135;28;20103;-59
2021/01/16 02:32:44;;;;;;;52.80;30.88;;;17.40;52.80;;;;;;5114172;28;20067;-59
2021/01/16 02:35:12;;;;;;;49.67;30.17;;;17.40;52.70;;;;;;5113975;28;20028;-59
2021/01/16 02:38:08;;;;;;;49.03;29.95;;;17.40;52.50;;;;;;5113810;28;20035;-59
2021/01/16 02:40:46;;;;;;;47.13;28.33;;;17.40;52.50;;;;;;5114336;28;20063;-59
2021/01/16 02:43:26;;;;;;;44.15;27.98;;;17.40;52.60;;;;;;5113595;28;20035;-60
2021/01/16 02:46:21;;;;;;;48.17;28.58;;;17.40;52.60;;;;;;5114107;28;20037;-59
2021/01/16 02:48:51;;;;;;;48.15;27.60;;;17.30;52.70;;;;;;5113445;28;20500;-59
2021/01/16 02:51:29;;;;;;;46.17;27.95;;;17.20;52.90;;;;;;5114079;28;20027;-60
2021/01/16 02:53:55;;;;;;;45.03;27.42;;;17.10;53.00;;;;;;5114559;28;20100;-59
2021/01/16 02:56:28;;;;;;;42.03;27.25;;;17.10;53.20;;;;;;5113716;28;20024;-59
2021/01/16 02:58:53;;;;;;;44.97;26.05;;;17.00;53.30;;;;;;5113837;28;20032;-59
2021/01/16 03:01:19;;;;;;;44.00;26.45;;;17.00;53.30;;;;;;5113680;28;20035;-59
2021/01/16 03:03:45;;;;;;;41.80;25.27;;;16.30;52.30;;;;;;5113899;28;20478;-59
2021/01/16 03:06:12;;;;;;;43.28;25.85;;;17.00;53.40;;;;;;5113855;28;20023;-59
2021/01/16 03:08:38;;;;;;;40.97;25.60;;;17.00;53.30;;;;;;5114341;28;20149;-59
2021/01/16 03:11:03;;;;;;;42.47;25.10;;;16.90;53.40;;;;;;5113873;28;20389;-59
2021/01/16 03:13:31;;;;;;;36.72;24.48;;;16.90;54.10;;;;;;5112425;28;20024;-59
2021/01/16 03:15:58;;;;;;;41.88;23.30;;;17.00;53.40;;;;;;5113870;28;20080;-59
2021/01/16 03:18:24;;;;;;;45.47;24.85;;;17.00;53.20;;;;;;5117615;28;20497;-60
2021/01/16 03:20:51;;;;;;;37.17;23.33;;;17.10;53.00;;;;;;5117392;28;20170;-59
2021/01/16 03:23:16;;;;;;;43.38;24.55;;;17.20;52.90;;;;;;5117435;28;20036;-59
2021/01/16 03:25:43;;;;;;;37.25;22.05;;;17.30;52.70;;;;;;5117558;28;20052;-59
2021/01/16 03:28:09;;;;;;;37.42;23.23;;;17.40;52.50;;;;;;5117363;28;20111;-59
2021/01/16 03:30:35;;;;;;;32.88;21.13;;;17.50;52.30;;;;;;5117573;28;20051;-59
2021/01/16 03:33:00;;;;;;;37.00;22.33;;;17.50;52.00;;;;;;5117343;28;20023;-60
2021/01/16 03:35:26;;;;;;;38.00;22.73;;;17.60;52.10;;;;;;5117593;28;20043;-59
2021/01/16 03:37:53;;;;;;;32.28;19.42;;;17.70;52.10;;;;;;5117181;28;20115;-59
2021/01/16 03:40:20;;;;;;;36.92;20.90;;;17.90;51.80;;;;;;5117400;28;20023;-59
2021/01/16 03:42:46;;;;;;;35.78;21.13;;;18.00;51.30;;;;;;5117096;28;20042;-59
2021/01/16 03:45:19;;;;;;;34.80;20.90;;;18.10;51.20;;;;;;5116964;28;20028;-59
2021/01/16 03:47:44;;;;;;;29.75;20.15;;;18.10;51.20;;;;;;5116940;28;20032;-60
2021/01/16 03:50:10;;;;;;;33.30;19.70;;;18.00;51.40;;;;;;5116811;28;20184;-59
2021/01/16 03:52:38;;;;;;;31.58;21.10;;;17.80;51.60;;;;;;5116998;28;20023;-59
2021/01/16 03:55:05;;;;;;;30.65;19.27;;;17.80;51.80;;;;;;5117384;28;20023;-59
2021/01/16 03:57:31;;;;;;;29.80;18.40;;;17.70;52.00;;;;;;5116619;28;20032;-59
2021/01/16 03:59:57;;;;;;;28.50;19.13;;;17.60;52.00;;;;;;5116622;28;20055;-59
2021/01/16 04:02:23;;;;;;;30.33;18.90;;;17.60;52.20;;;;;;5116624;28;20027;-59
2021/01/16 04:04:49;;;;;;;31.77;19.35;;;17.50;52.20;;;;;;5117032;28;20412;-59
2021/01/16 04:07:16;;;;;;;29.70;18.83;;;17.50;52.20;;;;;;5116605;28;20032;-59
2021/01/16 04:09:42;;;;;;;28.42;18.67;;;17.50;52.10;;;;;;5116504;28;20473;-59
2021/01/16 04:12:09;;;;;;;27.25;17.42;;;17.50;52.20;;;;;;5116739;28;20047;-59
2021/01/16 04:14:35;;;;;;;30.60;17.35;;;17.50;52.20;;;;;;5116224;28;20481;-59
2021/01/16 04:17:07;;;;;;;26.83;18.52;;;17.50;52.20;;;;;;5115710;28;20077;-59
2021/01/16 04:19:33;;;;;;;29.52;17.27;;;17.40;52.30;;;;;;5116814;28;20055;-59
2021/01/16 04:21:59;;;;;;;29.92;18.48;;;17.40;52.40;;;;;;5116790;27;20059;-59
2021/01/16 04:24:25;;;;;;;27.38;16.83;;;17.40;52.30;;;;;;5116424;28;20043;-59
2021/01/16 04:26:51;;;;;;;27.75;17.27;;;17.40;52.20;;;;;;5116239;28;20032;-59
2021/01/16 04:29:16;;;;;;;27.10;16.42;;;17.40;52.20;;;;;;5114583;28;20088;-59
2021/01/16 04:31:42;;;;;;;29.08;17.00;;;17.40;52.10;;;;;;5116124;28;20023;-59
2021/01/16 04:34:08;;;;;;;28.02;16.15;;;17.40;52.00;;;;;;5116293;28;20027;-59
2021/01/16 04:36:33;;;;;;;25.15;16.67;;;17.40;52.10;;;;;;5116104;28;20030;-59
2021/01/16 04:38:59;;;;;;;26.73;16.38;;;17.40;52.00;;;;;;5116266;28;20039;-59
2021/01/16 04:41:27;;;;;;;25.42;15.38;;;17.30;52.10;;;;;;5116238;28;20373;-59
2021/01/16 04:43:54;;;;;;;24.88;15.77;;;17.40;52.30;;;;;;5115927;28;20030;-59
2021/01/16 04:46:19;;;;;;;24.65;15.50;;;17.50;51.90;;;;;;5116028;28;20020;-59
2021/01/16 04:48:55;;;;;;;24.23;15.20;;;17.50;51.70;;;;;;5115595;28;20031;-59
2021/01/16 04:51:22;;;;;;;24.40;14.55;;;17.50;51.60;;;;;;5115787;28;20058;-59
2021/01/16 04:53:49;;;;;;;23.42;14.93;;;17.50;51.60;;;;;;5115829;28;20031;-59
2021/01/16 04:56:17;;;;;;;24.60;14.68;;;17.50;51.70;;;;;;5115510;28;20454;-59
2021/01/16 04:58:43;;;;;;;22.38;13.98;;;17.40;51.80;;;;;;5115701;28;20028;-59
2021/01/16 05:01:09;;;;;;;20.50;13.88;;;17.30;51.80;;;;;;5116039;28;20028;-59
2021/01/16 05:03:42;;;;;;;22.02;14.35;;;17.20;51.90;;;;;;5115527;28;20031;-59
2021/01/16 05:06:11;;;;;;;20.83;14.70;;;17.20;52.10;;;;;;5115746;28;20130;-59
2021/01/16 05:08:41;;;;;;;22.48;13.77;;;17.10;52.20;;;;;;5115313;28;20485;-61
2021/01/16 05:11:17;;;;;;;24.63;14.13;;;17.10;52.20;;;;;;5115071;28;20122;-59
2021/01/16 05:13:45;;;;;;;22.05;13.13;;;17.20;52.30;;;;;;5115929;28;20062;-58
2021/01/16 05:16:13;;;;;;;19.70;12.77;;;17.20;52.10;;;;;;5115320;28;20097;-59
2021/01/16 05:18:41;;;;;;;20.65;13.00;;;17.30;51.90;;;;;;5115057;28;20381;-59
2021/01/16 05:21:08;;;;;;;22.33;13.18;;;17.40;51.70;;;;;;5114891;28;20081;-59
2021/01/16 05:23:40;;;;;;;19.63;13.13;;;17.50;51.40;;;;;;5115239;28;20035;-59
2021/01/16 05:26:06;;;;;;;22.30;12.70;;;17.60;51.20;;;;;;5115581;28;20028;-59
2021/01/16 05:28:32;;;;;;;22.17;13.90;;;17.70;51.10;;;;;;5115283;28;20028;-59
2021/01/16 05:31:02;;;;;;;18.80;12.15;;;17.70;50.90;;;;;;5115128;28;20043;-59
2021/01/16 05:33:33;;;;;;;21.55;12.55;;;17.80;50.80;;;;;;5114989;28;20034;-58
2021/01/16 05:36:01;;;;;;;20.15;11.88;;;17.90;51.30;;;;;;5114842;28;20030;-59
2021/01/16 05:38:41;;;;;;;19.52;12.90;;;17.90;50.70;;;;;;5114830;28;20023;-59
2021/01/16 05:41:10;;;;;;;18.20;11.57;;;18.00;50.50;;;;;;5114790;28;20373;-59
2021/01/16 05:43:37;;;;;;;21.30;12.27;;;18.10;50.30;;;;;;5114886;28;20039;-59
2021/01/16 05:46:05;;;;;;;19.55;11.32;;;18.20;50.10;;;;;;5114686;28;20469;-59
2021/01/16 05:48:32;;;;;;;17.00;10.57;;;18.20;50.20;;;;;;5114643;28;20036;-59
2021/01/16 05:50:59;;;;;;;19.13;11.20;;;18.20;50.30;;;;;;5114587;28;20432;-60
2021/01/16 05:53:26;;;;;;;23.95;12.65;;;18.20;50.30;;;;;;5114939;28;20034;-59
2021/01/16 05:55:55;;;;;;;18.05;11.73;;;18.40;50.10;;;;;;5114862;28;20027;-59
2021/01/16 05:58:25;;;;;;;20.42;11.30;;;18.50;49.90;;;;;;5114275;28;20542;-59
2021/01/16 06:00:51;;;;;;;19.48;12.00;;;18.50;49.80;;;;;;5114317;28;20012;-59
2021/01/16 06:03:19;;;;;;;15.52;10.25;;;18.60;49.70;;;;;;5114631;28;20051;-59
2021/01/16 06:05:51;;;;;;;17.90;10.18;;;18.70;49.40;;;;;;5114768;28;20023;-59
2021/01/16 06:08:18;;;;;;;17.75;11.05;;;18.70;49.40;;;;;;5114444;28;20039;-59
2021/01/16 06:10:51;;;;;;;15.40;10.35;;;18.70;49.30;;;;;;5114130;28;20039;-59
2021/01/16 06:13:22;;;;;;;15.32;10.30;;;18.80;49.10;;;;;;5114449;28;20028;-59
2021/01/16 06:15:50;;;;;;;15.98;9.85;;;18.80;49.10;;;;;;5114415;28;20028;-59
2021/01/16 06:18:39;;;;;;;15.27;9.68;;;18.90;49.00;;;;;;5113966;28;20074;-59
2021/01/16 06:21:05;;;;;;;17.70;10.43;;;18.90;48.80;;;;;;5114186;28;20024;-60
2021/01/16 06:23:32;;;;;;;15.27;9.63;;;19.00;48.70;;;;;;5113909;28;20031;-60
2021/01/16 06:26:05;;;;;;;15.23;9.43;;;19.00;48.70;;;;;;5114168;28;20172;-59
2021/01/16 06:28:35;;;;;;;15.38;9.35;;;19.00;48.70;;;;;;5114588;28;20039;-59
2021/01/16 06:31:01;;;;;;;19.17;9.73;;;18.90;48.70;;;;;;5114061;28;20032;-60
2021/01/16 06:33:30;;;;;;;16.77;9.82;;;18.90;48.80;;;;;;5114219;28;20034;-59
2021/01/16 06:36:03;;;;;;;16.23;9.15;;;18.90;48.80;;;;;;5113852;28;20460;-60
2021/01/16 06:38:38;;;;;;;14.63;9.25;;;18.80;48.90;;;;;;5113958;28;20098;-59
2021/01/16 06:41:13;;;;;;;14.75;9.70;;;18.80;48.90;;;;;;5114146;28;20042;-59
2021/01/16 06:43:41;;;;;;;16.27;9.13;;;18.80;49.00;;;;;;5113837;28;20149;-59
2021/01/16 06:46:15;;;;;;;12.93;8.45;;;18.80;49.10;;;;;;5113751;28;20030;-59
2021/01/16 06:48:45;;;;;;;12.38;7.78;;;18.80;49.10;;;;;;5113224;28;20112;-59
2021/01/16 06:51:22;;;;;;;13.23;8.40;;;18.70;49.00;;;;;;5114267;28;20111;-59
2021/01/16 06:53:48;;;;;;;12.55;8.07;;;18.70;49.00;;;;;;5118748;28;20043;-59
2021/01/16 06:56:23;;;;;;;14.90;8.88;;;18.60;49.40;;;;;;5118038;27;20401;-59
2021/01/16 06:58:50;;;;;;;14.45;8.27;;;18.50;49.70;;;;;;5118163;28;20027;-60
2021/01/16 07:01:16;;;;;;;15.98;8.52;;;18.50;49.80;;;;;;5117704;28;20023;-59
2021/01/16 07:03:46;;;;;;;13.45;8.20;;;18.60;49.80;;;;;;5117855;28;20069;-59
2021/01/16 07:06:13;;;;;;;13.57;7.95;;;18.70;49.50;;;;;;5118050;27;20469;-59
2021/01/16 07:08:40;;;;;;;13.60;7.75;;;18.70;49.50;;;;;;5117801;28;20358;-59
2021/01/16 07:11:07;;;;;;;12.63;8.07;;;18.60;49.50;;;;;;5117640;28;20044;-59
2021/01/16 07:13:33;;;;;;;11.88;8.07;;;18.50;49.60;;;;;;5117871;28;20027;-59
2021/01/16 07:16:02;;;;;;;11.95;7.68;;;18.40;49.70;;;;;;5117702;28;20358;-59
2021/01/16 07:18:28;;;;;;;11.97;7.30;;;18.40;49.70;;;;;;5117318;28;20166;-59
2021/01/16 07:20:56;;;;;;;13.13;7.38;;;18.40;49.60;;;;;;5117851;28;20555;-59
2021/01/16 07:23:22;;;;;;;13.80;8.02;;;18.40;49.60;;;;;;5117701;28;20028;-59
2021/01/16 07:25:52;;;;;;;10.80;8.20;;;18.40;49.60;;;;;;5117488;28;20490;-59
2021/01/16 07:28:21;;;;;;;12.85;8.23;;;18.30;49.50;;;;;;5117529;28;20125;-59
2021/01/16 07:30:48;;;;;;;13.75;7.80;;;18.30;49.60;;;;;;5117799;28;20027;-59
2021/01/16 07:33:14;;;;;;;10.52;6.82;;;18.30;49.80;;;;;;5117389;28;20027;-59
2021/01/16 07:35:47;;;;;;;12.80;7.28;;;18.20;49.70;;;;;;5117484;28;20023;-59
2021/01/16 07:38:14;;;;;;;11.10;6.90;;;18.20;50.00;;;;;;5117420;28;20040;-59
2021/01/16 07:40:42;;;;;;;10.93;7.55;;;18.10;50.10;;;;;;5116846;28;20027;-59
2021/01/16 07:43:45;;;;;;;12.93;7.22;;;18.10;50.10;;;;;;5117207;28;20023;-59
2021/01/16 07:46:11;;;;;;;14.13;7.72;;;18.20;50.00;;;;;;5117196;28;20046;-59
2021/01/16 07:48:54;;;;;;;10.95;7.13;;;18.20;49.90;;;;;;5116571;28;20461;-59
2021/01/16 07:51:20;;;;;;;10.60;6.78;;;18.30;49.70;;;;;;5116941;28;20490;-59
2021/01/16 07:53:46;;;;;;;11.45;7.10;;;18.30;49.60;;;;;;5116977;28;20105;-59
2021/01/16 07:56:22;;;;;;;13.18;6.95;;;18.40;49.40;;;;;;5117169;28;20023;-59
2021/01/16 07:58:54;;;;;;;11.93;7.32;;;18.50;49.30;;;;;;5116761;28;20039;-59
2021/01/16 08:01:30;;;;;;;10.52;6.15;;;18.50;49.20;;;;;;5116955;28;20031;-59
2021/01/16 08:04:20;;;;;;;12.45;8.05;;;18.50;49.40;;;;;;5116209;28;20024;-59
2021/01/16 08:07:06;;;;;;;11.47;7.10;;;18.60;49.40;;;;;;5117127;28;20016;-59
2021/01/16 08:09:46;;;;;;;10.70;6.68;;;18.70;49.30;;;;;;5116311;28;20110;-59
2021/01/16 08:12:13;;;;;;;10.73;6.93;;;18.80;49.10;;;;;;5115279;28;20590;-59
2021/01/16 08:14:40;;;;;;;13.48;7.60;;;18.80;48.90;;;;;;5116421;28;20070;-59
2021/01/16 08:17:09;;;;;;;14.55;8.45;;;18.80;47.80;;;;;;5116412;28;20034;-59
2021/01/16 08:20:05;;;;;;;17.73;10.43;;;18.70;46.50;;;;;;5116269;28;20378;-59
2021/01/16 08:22:44;;;;;;;17.50;10.40;;;18.60;44.90;;;;;;5116517;28;20474;-59
2021/01/16 08:25:14;;;;;;;15.75;10.95;;;18.50;43.90;;;;;;5116344;28;20464;-59
2021/01/16 08:27:46;;;;;;;;;;;18.50;43.50;;;;;;5116848;28;20104;-48
2021/01/16 08:30:22;;;;;;;15.13;10.73;;;18.50;44.60;;;;;;5116561;28;19938;-52
2021/01/16 08:33:08;;;;;;;17.25;11.15;;;18.60;44.70;;;;;;5116952;28;20027;-52
2021/01/16 08:35:39;;;;;;;19.73;12.32;;;18.70;44.00;;;;;;5113005;28;20102;-57
2021/01/16 08:38:17;;;;;;;16.40;10.57;;;18.70;44.30;;;;;;5114550;28;20028;-58
2021/01/16 08:41:06;;;;;;;83.55;49.60;;;18.60;43.70;;;;;;5114142;28;20078;-58
2021/01/16 08:43:45;;;;;;;128.77;71.07;;;18.70;40.60;;;;;;5113311;28;20024;-55
2021/01/16 08:46:31;;;;;;;108.88;60.60;;;18.40;41.40;;;;;;5112836;28;20045;-56
2021/01/16 08:49:01;;;;;;;95.75;54.85;;;18.20;40.50;;;;;;5113340;28;20065;-64
2021/01/16 08:51:43;;;;;;;90.68;48.15;;;18.10;39.90;;;;;;5112047;28;20019;-57
2021/01/16 08:54:13;;;;;;;91.47;55.50;;;18.10;39.50;;;;;;5112062;28;20023;-58
2021/01/16 08:56:40;;;;;;;82.75;46.35;;;18.00;39.10;;;;;;5115660;28;20020;-59
2021/01/16 08:59:36;;;;;;;73.75;43.40;;;17.90;38.80;;;;;;5115817;28;20028;-60
2021/01/16 09:02:09;;;;;;;47.72;31.38;;;17.60;38.50;;;;;;5098008;28;20118;-58
2021/01/16 09:04:45;;;;;;;30.70;21.83;;;17.20;38.10;;;;;;5115967;28;20038;-57
2021/01/16 09:07:24;;;;;;;28.58;20.75;;;17.20;38.50;;;;;;5115693;28;20106;-65
2021/01/16 09:09:58;;;;;;;25.15;17.80;;;17.10;38.80;;;;;;5115535;28;20020;-63
2021/01/16 09:12:36;;;;;;;26.83;17.02;;;17.40;38.90;;;;;;5115160;28;20476;-59
2021/01/16 09:15:20;;;;;;;28.25;16.60;;;17.70;38.80;;;;;;5115013;28;20019;-59
2021/01/16 09:18:04;;;;;;;21.23;15.45;;;18.00;39.00;;;;;;5115452;28;20075;-59
2021/01/16 09:20:32;;;;;;;23.55;16.17;;;18.20;39.10;;;;;;5115408;28;20019;-60
2021/01/16 09:22:58;;;;;;;23.80;15.00;;;18.30;39.20;;;;;;5115554;28;20024;-60
2021/01/16 09:25:24;;;;;;;20.67;14.45;;;18.40;39.10;;;;;;5115365;28;20362;-60
2021/01/16 09:27:52;;;;;;;18.73;13.48;;;18.50;39.20;;;;;;5115288;28;20027;-60
2021/01/16 09:30:25;;;;;;;20.60;12.80;;;18.50;39.60;;;;;;5115244;28;20457;-60
2021/01/16 09:32:51;;;;;;;18.27;13.55;;;18.50;39.90;;;;;;5115245;28;20020;-60
2021/01/16 09:35:38;;;;;;;22.35;13.15;;;18.60;39.80;;;;;;5115211;28;20019;-60
2021/01/16 09:38:20;;;;;;;22.15;12.75;;;18.70;40.00;;;;;;5114939;28;20028;-59
2021/01/16 09:40:47;;;;;;;23.30;12.77;;;18.70;40.20;;;;;;5115126;28;20450;-59
2021/01/16 09:43:14;;;;;;;21.45;12.43;;;18.80;40.30;;;;;;5114572;28;20027;-60
2021/01/16 09:46:00;;;;;;;20.58;12.60;;;18.90;40.30;;;;;;5114973;28;20055;-60
2021/01/16 09:48:41;;;;;;;16.40;11.13;;;18.90;40.50;;;;;;5114950;28;20063;-60
2021/01/16 09:51:10;;;;;;;15.10;10.63;;;19.00;40.70;;;;;;5114807;28;20092;-60
2021/01/16 09:53:37;;;;;;;20.60;12.40;;;19.00;40.80;;;;;;5114851;28;20027;-60
2021/01/16 09:56:02;;;;;;;16.17;10.63;;;18.90;41.00;;;;;;5115043;28;20031;-60
2021/01/16 09:58:42;;;;;;;16.40;10.60;;;18.90;41.20;;;;;;5114628;28;20031;-60
2021/01/16 10:01:22;;;;;;;14.05;11.00;;;18.90;41.30;;;;;;5114764;28;20069;-60
2021/01/16 10:03:48;;;;;;;20.30;10.48;;;18.90;41.50;;;;;;5114715;28;20034;-60
2021/01/16 10:06:18;;;;;;;14.00;9.82;;;18.90;41.70;;;;;;5114340;28;20039;-60
2021/01/16 10:08:45;;;;;;;15.40;9.93;;;18.90;41.80;;;;;;5114758;28;20031;-60
2021/01/16 10:11:13;;;;;;;22.20;9.65;;;18.90;42.00;;;;;;5114240;28;20539;-60
2021/01/16 10:13:39;;;;;;;16.95;10.32;;;18.80;42.30;;;;;;5114483;28;20024;-60
2021/01/16 10:16:11;;;;;;;16.77;8.85;;;18.80;42.40;;;;;;5114240;28;20530;-60
2021/01/16 10:18:39;;;;;;;22.77;9.98;;;18.80;42.80;;;;;;5114368;28;20464;-60
2021/01/16 10:21:11;;;;;;;21.10;10.43;;;18.80;42.60;;;;;;5114311;28;20035;-60
2021/01/16 10:23:40;;;;;;;67.22;37.25;;;19.00;41.80;;;;;;5114458;28;20051;-60
2021/01/16 10:26:14;;;;;;;82.10;47.88;;;19.00;41.00;;;;;;5114262;28;20066;-60
2021/01/16 10:29:06;;;;;;;96.80;55.30;;;18.90;40.40;;;;;;5114298;28;20038;-59
2021/01/16 10:31:31;;;;;;;115.03;65.72;;;18.90;40.30;;;;;;5075785;28;20385;-59
2021/01/16 10:34:09;;;;;;;158.52;94.40;;;18.80;40.50;;;;;;5112775;28;20034;-59
2021/01/16 10:36:35;;;;;;;183.57;100.65;;;18.70;40.60;;;;;;5113170;28;20358;-59
2021/01/16 10:39:11;;;;;;;146.15;76.88;;;18.70;40.40;;;;;;5113410;28;20030;-64
2021/01/16 10:41:39;;;;;;;101.32;61.97;;;18.60;40.30;;;;;;5110921;28;20088;-57
2021/01/16 10:44:10;;;;;;;105.18;61.70;;;18.50;40.40;;;;;;5113809;28;20038;-57
2021/01/16 10:46:37;;;;;;;161.48;92.22;;;18.40;40.00;;;;;;5113706;28;20024;-55
2021/01/16 10:49:29;;;;;;;213.27;111.80;;;18.40;40.90;;;;;;5113695;28;20045;-56
2021/01/16 10:52:03;;;;;;;227.65;122.75;;;18.40;41.50;;;;;;5111678;28;20036;-58
2021/01/16 10:54:30;;;;;;;242.27;134.40;;;18.50;42.20;;;;;;5113594;28;20496;-57
2021/01/16 10:57:07;;;;;;;245.60;134.13;;;18.50;42.40;;;;;;5113610;28;20066;-57
2021/01/16 10:59:35;;;;;;;228.57;125.68;;;18.60;42.40;;;;;;5113696;28;20023;-58
2021/01/16 11:02:11;;;;;;;194.85;110.10;;;18.70;42.50;;;;;;5113499;28;20389;-59
2021/01/16 11:04:45;;;;;;;159.70;91.13;;;18.70;41.60;;;;;;5113563;28;20031;-60
2021/01/16 11:07:25;;;;;;;130.20;73.88;;;18.60;40.80;;;;;;5113582;28;20047;-61
2021/01/16 11:10:11;;;;;;;;;;;18.50;39.80;;;;;;5113981;28;20087;-59
2021/01/16 11:12:37;;;;;;;94.05;53.53;;;18.50;39.60;;;;;;5112471;28;19924;-61
2021/01/16 11:15:18;;;;;;;86.25;49.78;;;18.40;39.20;;;;;;5113562;28;20030;-59
2021/01/16 11:17:50;;;;;;;86.72;45.35;;;18.50;39.20;;;;;;5113394;28;20032;-67
2021/01/16 11:20:20;;;;;;;71.97;37.00;;;18.50;38.90;;;;;;5113423;28;20027;-65
2021/01/16 11:22:50;;;;;;;;;;;18.40;38.30;;;;;;5096239;28;20400;-59
2021/01/16 11:25:42;;;;;;;50.97;28.30;;;18.50;37.70;;;;;;5113156;28;19927;-59
2021/01/16 11:28:09;;;;;;;47.92;28.55;;;18.60;37.80;;;;;;5113488;28;20160;-60
2021/01/16 11:30:41;;;;;;;46.95;28.48;;;18.80;37.70;;;;;;5113273;28;20023;-59
2021/01/16 11:33:11;;;;;;;41.60;27.15;;;18.90;37.80;;;;;;5110769;28;20020;-61
2021/01/16 11:35:39;;;;;;;132.07;72.30;;;19.00;37.80;;;;;;5113133;28;20032;-61
2021/01/16 11:38:05;;;;;;;143.40;79.53;;;19.10;38.30;;;;;;5115407;28;20115;-60
2021/01/16 11:40:32;;;;;;;93.32;57.97;;;19.00;38.00;;;;;;5117450;28;20092;-61
2021/01/16 11:42:58;;;;;;;72.32;44.65;;;18.90;37.50;;;;;;5116217;28;20024;-60
2021/01/16 11:45:25;;;;;;;94.90;55.22;;;18.80;37.50;;;;;;5116177;28;20385;-61
2021/01/16 11:47:55;;;;;;;76.63;49.90;;;18.80;37.20;;;;;;5113560;28;20038;-62
2021/01/16 11:50:23;;;;;;;60.22;38.20;;;18.70;37.00;;;;;;5116995;27;20031;-61
2021/01/16 11:52:49;;;;;;;94.35;53.00;;;18.70;36.80;;;;;;5127106;27;20115;-61
2021/01/16 11:55:16;;;;;;;96.72;56.35;;;18.70;36.70;;;;;;5126190;27;20449;-61
2021/01/16 11:57:43;;;;;;;106.55;61.40;;;18.70;36.70;;;;;;5125326;27;20059;-61
2021/01/16 12:00:11;;;;;;;74.13;47.67;;;18.80;36.70;;;;;;5120965;27;20019;-62
2021/01/16 12:02:37;;;;;;;61.80;37.78;;;18.70;36.70;;;;;;5116959;28;20030;-62
2021/01/16 12:05:03;;;;;;;49.53;30.75;;;18.70;36.50;;;;;;5116758;28;20035;-62
2021/01/16 12:07:30;;;;;;;41.55;26.17;;;18.80;36.50;;;;;;5116846;28;20123;-62
2021/01/16 12:09:57;;;;;;;36.15;23.85;;;18.70;36.50;;;;;;5116945;28;20427;-62
2021/01/16 12:12:31;;;;;;;31.98;22.15;;;18.70;36.20;;;;;;5116604;28;20039;-63
2021/01/16 12:14:56;;;;;;;29.77;20.38;;;18.70;36.10;;;;;;5116614;28;20055;-63
2021/01/16 12:17:27;;;;;;;33.08;19.52;;;18.80;36.20;;;;;;5116756;28;20492;-55
2021/01/16 12:19:53;;;;;;;28.77;18.13;;;18.80;36.30;;;;;;5116990;28;20023;-58
2021/01/16 12:22:21;;;;;;;28.20;17.50;;;18.80;36.60;;;;;;5116839;28;20035;-59
2021/01/16 12:24:47;;;;;;;30.05;17.27;;;18.80;38.50;;;;;;5113798;28;20020;-55
2021/01/16 12:27:13;;;;;;;23.60;16.63;;;19.00;38.80;;;;;;5116048;28;20023;-59
2021/01/16 12:29:46;;;;;;;27.90;16.40;;;19.00;38.20;;;;;;5116025;28;20039;-57
2021/01/16 12:32:15;;;;;;;25.60;17.35;;;19.10;40.10;;;;;;5116177;28;20038;-58
2021/01/16 12:34:58;;;;;;;25.25;16.92;;;19.40;39.60;;;;;;5115523;28;20415;-58
2021/01/16 12:37:26;;;;;;;38.55;19.58;;;19.30;41.00;;;;;;5115398;28;20145;-56
2021/01/16 12:39:51;;;;;;;25.30;16.73;;;19.50;42.40;;;;;;5114744;28;20016;-60
2021/01/16 12:42:18;;;;;;;29.88;16.17;;;19.70;41.00;;;;;;5114817;28;20027;-60